Iliysk North Airport

Jump to: basic info | weather | comments

Related pages: nearby airports | nearby navaids

Basic information (top)

Location: lon 43.998299, lat 77.139099, elev 2,343 ft / 714 m msl
Status: small_airport

Weather (top)

Current conditions for Almaty Airport 39nm (72km) S (rec'd 2014/10/23 14:30Z):

UAAA 231430Z 14002MPS 0800 R23R/P2000 R23L/P2000U FU FEW050CB OVC100 16/07 Q1015 R88/CLRD65 NOSIG

Airport forecast for Almaty Airport 39nm (72km) S (rec'd 2014/10/23 12:18Z):

TAF TAF UAAA 231100Z 2312/2412 24006MPS 5000 BR FU SCT033CB BKN100 TX14/2408Z TN06/2401Z 
      TEMPO 2312/2406 28012MPS 2000 SHRA BR SCT006 OVC010CB

Latest comments (top)

No comments yet for Iliysk North Airport

More... (top)

See also NOTAMs and nearby airports and navaids, or visit the Iliysk North Airport page at the main OurAirports website..